METAR Data
IDs: Format: Raw Decoded Include TAF

Data at: 1726 UTC 03 Jun 2020

KRNT 031653Z VRB03KT 6SM HZ OVC018 12/08 A3023 RMK AO2 SLP243 T01220083
No TAF found for KRNT